createdAt,value
2022-10-10T00:00:58.544Z,99.99
2022-10-10T00:01:58.571Z,99.99
2022-10-10T00:02:58.548Z,99.99
2022-10-10T00:03:58.534Z,99.99
2022-10-10T00:04:58.535Z,99.99
2022-10-10T00:05:58.539Z,99.99
2022-10-10T00:06:58.539Z,99.99
2022-10-10T00:07:58.517Z,99.99
2022-10-10T00:08:58.529Z,99.99
2022-10-10T00:09:58.523Z,99.99
2022-10-10T00:10:58.528Z,99.99
2022-10-10T00:11:58.521Z,99.99
2022-10-10T00:12:58.525Z,99.99
2022-10-10T00:13:58.505Z,99.99
2022-10-10T00:14:58.518Z,99.99
2022-10-10T00:15:58.502Z,99.99
2022-10-10T00:16:58.523Z,99.99
2022-10-10T00:17:58.514Z,99.99
2022-10-10T00:18:58.513Z,99.99
2022-10-10T00:19:58.524Z,99.99
2022-10-10T00:20:58.506Z,99.99
2022-10-10T00:21:58.507Z,99.99
2022-10-10T00:22:58.502Z,99.99
2022-10-10T00:23:58.508Z,99.99
2022-10-10T00:24:58.505Z,99.99
2022-10-10T00:25:58.485Z,99.99
2022-10-10T00:26:58.490Z,99.99
2022-10-10T00:27:58.516Z,99.99
2022-10-10T00:28:58.494Z,99.99
2022-10-10T00:29:58.494Z,99.99
2022-10-10T00:30:58.474Z,99.99
2022-10-10T00:31:58.483Z,99.99
2022-10-10T00:32:58.488Z,99.99
2022-10-10T00:33:58.475Z,99.99
2022-10-10T00:34:58.482Z,99.99
2022-10-10T00:35:58.494Z,99.99
2022-10-10T00:36:58.476Z,99.99
2022-10-10T00:37:58.481Z,99.99
2022-10-10T00:38:58.476Z,99.99
2022-10-10T00:39:58.473Z,99.99
2022-10-10T00:40:58.483Z,99.99
2022-10-10T00:41:58.490Z,99.99
2022-10-10T00:42:58.454Z,99.99
2022-10-10T00:43:58.466Z,99.99
2022-10-10T00:44:58.461Z,99.99
2022-10-10T00:45:58.449Z,99.99
2022-10-10T00:46:58.459Z,99.99
2022-10-10T00:47:58.472Z,99.99
2022-10-10T00:48:58.444Z,99.99
2022-10-10T00:49:58.458Z,99.99
2022-10-10T00:50:58.443Z,99.99
2022-10-10T00:51:58.720Z,99.99
2022-10-10T00:52:58.448Z,99.99
2022-10-10T00:53:58.450Z,99.99
2022-10-10T00:54:58.445Z,99.99
2022-10-10T00:55:58.459Z,99.99
2022-10-10T00:56:58.437Z,99.99
2022-10-10T00:57:58.440Z,99.99
2022-10-10T00:58:58.424Z,99.99
2022-10-10T00:59:58.436Z,99.99
2022-10-10T01:00:58.559Z,99.99
2022-10-10T01:01:58.427Z,99.99
2022-10-10T01:02:58.432Z,99.99
2022-10-10T01:03:58.429Z,99.99
2022-10-10T01:04:58.412Z,99.99
2022-10-10T01:05:58.438Z,99.99
2022-10-10T01:06:58.420Z,99.99
2022-10-10T01:07:58.443Z,99.99
2022-10-10T01:08:58.411Z,99.99
2022-10-10T01:09:58.432Z,99.99
2022-10-10T01:10:58.401Z,99.99
2022-10-10T01:11:58.420Z,99.99
2022-10-10T01:12:58.404Z,99.99
2022-10-10T01:13:58.402Z,99.99
2022-10-10T01:14:58.411Z,99.99
2022-10-10T01:15:58.406Z,99.99
2022-10-10T01:16:58.415Z,99.99
2022-10-10T01:17:58.409Z,99.99
2022-10-10T01:18:58.394Z,99.99
2022-10-10T01:19:58.389Z,99.99
2022-10-10T01:20:58.403Z,99.99
2022-10-10T01:21:58.399Z,99.99
2022-10-10T01:22:58.392Z,99.99
2022-10-10T01:23:58.392Z,99.99
2022-10-10T01:24:58.391Z,99.99
2022-10-10T01:25:58.377Z,99.99
2022-10-10T01:26:58.394Z,99.99
2022-10-10T01:27:58.398Z,99.99
2022-10-10T01:28:58.371Z,99.99
2022-10-10T01:29:58.373Z,99.99
2022-10-10T01:30:58.367Z,99.99
2022-10-10T01:31:58.373Z,99.99
2022-10-10T01:32:58.377Z,99.99
2022-10-10T01:33:58.373Z,99.99
2022-10-10T01:34:58.370Z,99.99
2022-10-10T01:35:58.369Z,99.99
2022-10-10T01:36:58.362Z,99.99
2022-10-10T01:37:58.375Z,99.99
2022-10-10T01:38:58.358Z,99.99
2022-10-10T01:39:58.365Z,99.99
2022-10-10T01:40:58.353Z,99.99
2022-10-10T01:41:58.361Z,99.99
2022-10-10T01:42:58.345Z,99.99
2022-10-10T01:43:58.379Z,99.99
2022-10-10T01:44:58.374Z,99.99
2022-10-10T01:45:58.336Z,99.99
2022-10-10T01:46:58.344Z,99.99
2022-10-10T01:47:58.347Z,99.99
2022-10-10T01:48:58.334Z,99.99
2022-10-10T01:49:58.347Z,99.99
2022-10-10T01:50:58.375Z,99.99
2022-10-10T01:51:58.339Z,99.99
2022-10-10T01:52:58.331Z,99.99
2022-10-10T01:53:58.325Z,99.99
2022-10-10T01:54:58.327Z,99.99
2022-10-10T01:55:58.336Z,99.99
2022-10-10T01:56:58.323Z,99.99
2022-10-10T01:57:58.335Z,99.99
2022-10-10T01:58:58.316Z,99.99
2022-10-10T01:59:58.312Z,99.99
2022-10-10T02:00:58.359Z,99.99
2022-10-10T02:01:58.309Z,99.99
2022-10-10T02:02:58.309Z,99.99
2022-10-10T02:03:58.312Z,99.99
2022-10-10T02:04:58.307Z,99.99
2022-10-10T02:05:58.337Z,99.99
2022-10-10T02:06:58.311Z,99.99
2022-10-10T02:07:58.304Z,99.99
2022-10-10T02:08:58.297Z,99.99
2022-10-10T02:09:58.290Z,99.99
2022-10-10T02:10:58.309Z,99.99
2022-10-10T02:11:58.303Z,99.99
2022-10-10T02:12:58.305Z,99.99
2022-10-10T02:13:58.294Z,99.99
2022-10-10T02:14:58.282Z,99.99
2022-10-10T02:15:58.275Z,99.99
2022-10-10T02:16:58.289Z,99.99
2022-10-10T02:17:58.279Z,99.99
2022-10-10T02:18:58.279Z,99.99
2022-10-10T02:19:58.281Z,99.99
2022-10-10T02:20:58.276Z,99.99
2022-10-10T02:21:58.269Z,99.99
2022-10-10T02:22:58.280Z,99.99
2022-10-10T02:23:58.303Z,99.99
2022-10-10T02:24:58.275Z,99.99
2022-10-10T02:25:58.273Z,99.99
2022-10-10T02:26:58.281Z,99.99
2022-10-10T02:27:58.261Z,99.99
2022-10-10T02:28:58.283Z,99.99
2022-10-10T02:29:58.281Z,99.99
2022-10-10T02:30:58.258Z,99.99
2022-10-10T02:31:58.259Z,99.99
2022-10-10T02:32:58.253Z,99.99
2022-10-10T02:33:58.262Z,99.99
2022-10-10T02:34:58.251Z,99.99
2022-10-10T02:35:58.239Z,99.99
2022-10-10T02:36:58.238Z,99.99
2022-10-10T02:37:58.235Z,99.99
2022-10-10T02:38:58.268Z,99.99
2022-10-10T02:39:58.234Z,99.99
2022-10-10T02:40:58.236Z,99.99
2022-10-10T02:41:58.235Z,99.99
2022-10-10T02:42:58.240Z,99.99
2022-10-10T02:43:58.230Z,99.99
2022-10-10T02:44:58.242Z,99.99
2022-10-10T02:45:58.219Z,99.99
2022-10-10T02:46:58.245Z,99.99
2022-10-10T02:47:58.210Z,99.99
2022-10-10T02:48:58.222Z,99.99
2022-10-10T02:49:58.212Z,99.99
2022-10-10T02:50:58.223Z,99.99
2022-10-10T02:51:58.204Z,99.99
2022-10-10T02:52:58.243Z,99.99
2022-10-10T02:53:58.206Z,99.99
2022-10-10T02:54:58.204Z,99.99
2022-10-10T02:55:58.192Z,99.99
2022-10-10T02:56:58.207Z,99.99
2022-10-10T02:57:58.217Z,99.99
2022-10-10T02:58:58.197Z,99.99
2022-10-10T02:59:58.199Z,99.99
2022-10-10T03:00:58.227Z,99.99
2022-10-10T03:01:58.200Z,99.99
2022-10-10T03:02:58.186Z,99.99
2022-10-10T03:03:58.191Z,99.99
2022-10-10T03:04:58.184Z,99.99
2022-10-10T03:05:58.184Z,99.99
2022-10-10T03:06:58.221Z,99.99
2022-10-10T03:07:58.181Z,99.99
2022-10-10T03:08:58.183Z,99.99
2022-10-10T03:09:58.165Z,99.99
2022-10-10T03:10:58.169Z,99.99
2022-10-10T03:11:58.181Z,99.99
2022-10-10T03:12:58.182Z,99.99
2022-10-10T03:13:58.167Z,99.99
2022-10-10T03:14:58.155Z,99.99
2022-10-10T03:15:58.165Z,99.99
2022-10-10T03:16:58.146Z,99.99
2022-10-10T03:17:58.181Z,99.99
2022-10-10T03:18:58.163Z,99.99
2022-10-10T03:19:58.146Z,99.99
2022-10-10T03:20:58.151Z,99.99
2022-10-10T03:21:58.143Z,99.99
2022-10-10T03:22:58.169Z,99.99
2022-10-10T03:23:58.140Z,99.99
2022-10-10T03:24:58.137Z,99.99
2022-10-10T03:25:58.128Z,99.99
2022-10-10T03:26:58.128Z,99.99
2022-10-10T03:27:58.133Z,99.99
2022-10-10T03:28:58.133Z,99.99
2022-10-10T03:29:58.121Z,99.99
2022-10-10T03:30:58.118Z,99.99
2022-10-10T03:31:58.116Z,99.99
2022-10-10T03:32:58.152Z,99.99
2022-10-10T03:33:58.143Z,99.99
2022-10-10T03:34:58.120Z,99.99
2022-10-10T03:35:58.108Z,99.99
2022-10-10T03:36:58.102Z,99.99
2022-10-10T03:37:58.107Z,99.99
2022-10-10T03:38:58.097Z,99.99
2022-10-10T03:39:58.124Z,99.99
2022-10-10T03:40:58.100Z,99.99
2022-10-10T03:41:58.111Z,99.99
2022-10-10T03:42:58.103Z,99.99
2022-10-10T03:43:58.099Z,99.99
2022-10-10T03:44:58.095Z,99.99
2022-10-10T03:45:58.116Z,99.99
2022-10-10T03:46:58.094Z,99.99
2022-10-10T03:47:58.082Z,99.99
2022-10-10T03:48:58.073Z,99.99
2022-10-10T03:49:58.087Z,99.99
2022-10-10T03:50:58.077Z,99.99
2022-10-10T03:51:58.107Z,99.99
2022-10-10T03:52:58.070Z,99.99
2022-10-10T03:53:58.066Z,99.99
2022-10-10T03:54:58.082Z,99.99
2022-10-10T03:55:58.088Z,99.99
2022-10-10T03:56:58.059Z,99.99
2022-10-10T03:57:58.082Z,99.99
2022-10-10T03:58:58.064Z,99.99
2022-10-10T03:59:58.050Z,99.99
2022-10-10T04:00:58.077Z,99.99
2022-10-10T04:01:58.048Z,99.99
2022-10-10T04:02:58.055Z,99.99
2022-10-10T04:03:58.055Z,99.99
2022-10-10T04:04:58.036Z,99.99
2022-10-10T04:05:58.053Z,99.99
2022-10-10T04:06:58.068Z,99.99
2022-10-10T04:07:58.032Z,99.99
2022-10-10T04:08:58.038Z,99.99
2022-10-10T04:09:58.027Z,99.99
2022-10-10T04:10:58.036Z,99.99
2022-10-10T04:11:58.030Z,99.99
2022-10-10T04:12:58.043Z,99.99
2022-10-10T04:13:58.033Z,99.99
2022-10-10T04:14:58.018Z,99.99
2022-10-10T04:15:58.011Z,99.99
2022-10-10T04:17:02.835Z,99.99
2022-10-10T04:17:58.012Z,99.99
2022-10-10T04:18:58.040Z,99.99
2022-10-10T04:19:58.014Z,99.99
2022-10-10T04:20:58.051Z,99.99
2022-10-10T04:21:57.993Z,99.99
2022-10-10T04:22:58.001Z,99.99
2022-10-10T04:23:57.998Z,99.99
2022-10-10T04:24:58.008Z,99.99
2022-10-10T04:25:58.743Z,99.99
2022-10-10T04:26:58.008Z,99.99
2022-10-10T04:28:00.998Z,99.99
2022-10-10T04:28:57.987Z,99.99
2022-10-10T04:29:58.012Z,99.99
2022-10-10T04:30:57.975Z,99.99
2022-10-10T04:31:58.001Z,99.99
2022-10-10T04:32:57.976Z,99.99
2022-10-10T04:33:57.978Z,99.99
2022-10-10T04:34:58.750Z,99.99
2022-10-10T04:35:57.967Z,99.99
2022-10-10T04:36:57.987Z,99.99
2022-10-10T04:37:57.965Z,99.99
2022-10-10T04:38:57.969Z,99.99
2022-10-10T04:39:57.995Z,99.99
2022-10-10T04:40:57.954Z,99.99
2022-10-10T04:41:57.967Z,99.99
2022-10-10T04:42:57.957Z,99.99
2022-10-10T04:43:57.969Z,99.99
2022-10-10T04:44:57.948Z,99.99
2022-10-10T04:45:57.959Z,99.99
2022-10-10T04:46:57.949Z,99.99
2022-10-10T04:47:57.948Z,99.99
2022-10-10T04:48:57.947Z,99.99
2022-10-10T04:49:57.934Z,99.99
2022-10-10T04:50:57.942Z,99.99
2022-10-10T04:51:57.931Z,99.99
2022-10-10T04:52:57.936Z,99.99
2022-10-10T04:53:57.921Z,99.99
2022-10-10T04:54:57.923Z,99.99
2022-10-10T04:55:57.965Z,99.99
2022-10-10T04:56:57.923Z,99.99
2022-10-10T04:57:57.909Z,99.99
2022-10-10T04:58:57.926Z,99.99
2022-10-10T04:59:57.929Z,99.99
2022-10-10T05:00:57.973Z,99.99
2022-10-10T05:02:01.521Z,99.99
2022-10-10T05:02:57.910Z,99.99
2022-10-10T05:03:57.907Z,99.99
2022-10-10T05:04:57.913Z,99.99
2022-10-10T05:05:57.898Z,99.99
2022-10-10T05:06:57.905Z,99.99
2022-10-10T05:07:57.911Z,99.99
2022-10-10T05:08:57.888Z,99.99
2022-10-10T05:09:57.881Z,99.99
2022-10-10T05:10:57.881Z,99.99
2022-10-10T05:11:57.880Z,99.99
2022-10-10T05:12:58.302Z,99.99
2022-10-10T05:13:57.894Z,99.99
2022-10-10T05:14:57.878Z,99.99
2022-10-10T05:15:57.886Z,99.99
2022-10-10T05:16:58.289Z,99.99
2022-10-10T05:17:57.890Z,99.99
2022-10-10T05:18:57.895Z,99.99
2022-10-10T05:19:57.881Z,99.99
2022-10-10T05:21:03.244Z,99.99
2022-10-10T05:21:57.876Z,99.99
2022-10-10T05:22:57.876Z,99.99
2022-10-10T05:23:57.883Z,99.99
2022-10-10T05:24:57.868Z,99.99
2022-10-10T05:25:57.878Z,99.99
2022-10-10T05:26:57.865Z,99.99
2022-10-10T05:27:57.897Z,99.99
2022-10-10T05:28:58.761Z,99.99
2022-10-10T05:29:57.863Z,99.99
2022-10-10T05:30:57.874Z,99.99
2022-10-10T05:31:57.853Z,99.99
2022-10-10T05:32:58.282Z,99.99
2022-10-10T05:33:57.879Z,99.99
2022-10-10T05:34:57.850Z,99.99
2022-10-10T05:35:57.838Z,99.99
2022-10-10T05:36:58.771Z,99.99
2022-10-10T05:37:57.834Z,99.99
2022-10-10T05:38:57.832Z,99.99
2022-10-10T05:39:57.905Z,99.99
2022-10-10T05:40:57.846Z,99.99
2022-10-10T05:41:57.893Z,99.99
2022-10-10T05:42:57.829Z,99.99
2022-10-10T05:43:57.841Z,99.99
2022-10-10T05:44:57.836Z,99.99
2022-10-10T05:45:57.844Z,99.99
2022-10-10T05:46:57.798Z,99.99
2022-10-10T05:47:57.857Z,99.99
2022-10-10T05:48:57.796Z,99.99
2022-10-10T05:49:57.813Z,99.99
2022-10-10T05:50:57.818Z,99.99
2022-10-10T05:51:57.818Z,99.99
2022-10-10T05:52:57.829Z,99.99
2022-10-10T05:53:57.845Z,99.99
2022-10-10T05:54:57.842Z,99.99
2022-10-10T05:55:57.818Z,99.99
2022-10-10T05:56:57.773Z,99.99
2022-10-10T05:57:57.762Z,99.99
2022-10-10T05:58:57.767Z,99.99
2022-10-10T05:59:57.764Z,99.99
2022-10-10T06:00:57.783Z,99.99
2022-10-10T06:01:57.768Z,99.99
2022-10-10T06:02:57.815Z,99.99
2022-10-10T06:03:57.750Z,99.99
2022-10-10T06:04:57.760Z,99.99
2022-10-10T06:05:57.792Z,99.99
2022-10-10T06:06:57.784Z,99.99
2022-10-10T06:08:07.911Z,99.99
2022-10-10T06:08:57.733Z,99.99
2022-10-10T06:09:57.747Z,99.99
2022-10-10T06:10:57.752Z,99.99
2022-10-10T06:11:57.758Z,99.99
2022-10-10T06:12:57.740Z,99.99
2022-10-10T06:13:57.739Z,99.99
2022-10-10T06:14:57.734Z,99.99
2022-10-10T06:15:57.736Z,99.99
2022-10-10T06:16:57.717Z,99.99
2022-10-10T06:17:57.726Z,99.99
2022-10-10T06:18:57.730Z,99.99
2022-10-10T06:19:57.724Z,99.99
2022-10-10T06:20:57.711Z,99.99
2022-10-10T06:21:57.711Z,99.99
2022-10-10T06:22:57.722Z,99.99
2022-10-10T06:23:57.706Z,99.99
2022-10-10T06:24:57.724Z,99.99
2022-10-10T06:25:57.704Z,99.99
2022-10-10T06:26:57.707Z,99.99
2022-10-10T06:27:57.707Z,99.99
2022-10-10T06:28:57.700Z,99.99
2022-10-10T06:29:57.692Z,99.99
2022-10-10T06:30:57.690Z,99.99
2022-10-10T06:31:57.685Z,99.99
2022-10-10T06:32:57.905Z,99.99
2022-10-10T06:33:57.711Z,99.99
2022-10-10T06:34:57.740Z,99.99
2022-10-10T06:35:57.684Z,99.99
2022-10-10T06:36:57.672Z,99.99
2022-10-10T06:37:57.684Z,99.99
2022-10-10T06:38:57.683Z,99.99
2022-10-10T06:39:57.695Z,99.99
2022-10-10T06:41:00.549Z,99.99
2022-10-10T06:41:57.671Z,99.99
2022-10-10T06:42:57.659Z,99.99
2022-10-10T06:43:57.666Z,99.99
2022-10-10T06:44:57.665Z,99.99
2022-10-10T06:45:57.667Z,99.99
2022-10-10T06:46:57.653Z,99.99
2022-10-10T06:47:57.664Z,99.99
2022-10-10T06:48:57.646Z,99.99
2022-10-10T06:49:57.674Z,99.99
2022-10-10T06:50:57.665Z,99.99
2022-10-10T06:51:57.654Z,99.99
2022-10-10T06:52:57.640Z,99.99
2022-10-10T06:53:57.637Z,99.99
2022-10-10T06:54:57.645Z,99.99
2022-10-10T06:55:57.666Z,99.99
2022-10-10T06:56:57.640Z,99.99
2022-10-10T06:57:57.640Z,99.99
2022-10-10T06:58:57.636Z,99.99
2022-10-10T06:59:57.648Z,99.99
2022-10-10T07:00:57.629Z,99.99
2022-10-10T07:01:57.670Z,99.99
2022-10-10T07:02:57.631Z,99.99
2022-10-10T07:03:57.607Z,99.99
2022-10-10T07:04:57.610Z,99.99
2022-10-10T07:05:57.631Z,99.99
2022-10-10T07:06:57.602Z,99.99
2022-10-10T07:09:50.685Z,99.99
2022-10-10T07:10:29.674Z,99.99
2022-10-10T07:11:29.691Z,99.99
2022-10-10T07:12:31.863Z,99.99
2022-10-10T07:13:29.657Z,99.99
2022-10-10T07:14:29.662Z,99.99
2022-10-10T07:15:29.686Z,99.99
2022-10-10T07:16:29.648Z,99.99
2022-10-10T07:17:29.675Z,99.99
2022-10-10T07:18:29.644Z,99.99
2022-10-10T07:19:29.673Z,99.99
2022-10-10T07:20:29.654Z,99.99
2022-10-10T07:21:29.667Z,99.99
2022-10-10T07:22:29.646Z,99.99
2022-10-10T07:23:29.636Z,99.99
2022-10-10T07:24:29.652Z,99.99
2022-10-10T07:25:29.661Z,99.99
2022-10-10T07:26:29.682Z,99.99
2022-10-10T07:27:29.629Z,99.99
2022-10-10T07:28:29.728Z,99.99
2022-10-10T07:29:29.638Z,99.99
2022-10-10T07:30:29.620Z,99.99
2022-10-10T07:31:29.621Z,99.99
2022-10-10T07:32:29.665Z,99.99
2022-10-10T07:33:29.625Z,99.99
2022-10-10T07:34:29.622Z,99.99
2022-10-10T07:35:29.614Z,99.99
2022-10-10T07:36:29.619Z,99.99
2022-10-10T07:37:29.617Z,99.99
2022-10-10T07:38:29.627Z,99.99
2022-10-10T07:39:29.613Z,99.99
2022-10-10T07:40:29.605Z,99.99
2022-10-10T07:41:29.665Z,99.99
2022-10-10T07:42:29.633Z,99.99
2022-10-10T07:43:29.605Z,99.99
2022-10-10T07:44:34.284Z,99.99
2022-10-10T07:45:29.603Z,99.99
2022-10-10T07:46:29.587Z,99.99
2022-10-10T07:47:29.595Z,99.99
2022-10-10T07:48:29.632Z,99.99
2022-10-10T07:49:29.591Z,99.98
2022-10-10T07:50:29.592Z,99.99
2022-10-10T07:51:29.582Z,99.99
2022-10-10T07:52:29.588Z,99.99
2022-10-10T07:53:29.588Z,99.99
2022-10-10T07:54:29.592Z,99.99
2022-10-10T07:55:29.575Z,99.65
2022-10-10T07:56:29.569Z,99.27
2022-10-10T07:57:29.576Z,98.99
2022-10-10T07:58:29.575Z,99.37
2022-10-10T07:59:29.618Z,99.27
2022-10-10T08:00:29.577Z,98.89
2022-10-10T08:01:29.591Z,99.18
2022-10-10T08:02:29.599Z,99.08
2022-10-10T08:03:29.557Z,98.56
2022-10-10T08:04:29.574Z,97.08
2022-10-10T08:05:29.624Z,95.32
2022-10-10T08:06:29.568Z,94.22
2022-10-10T08:07:29.566Z,92.60
2022-10-10T08:08:29.569Z,92.07
2022-10-10T08:09:29.559Z,90.54
2022-10-10T08:10:29.594Z,89.34
2022-10-10T08:11:29.546Z,87.82
2022-10-10T08:12:29.551Z,86.96
2022-10-10T08:13:29.566Z,87.00
2022-10-10T08:14:29.536Z,86.23
2022-10-10T08:15:33.083Z,86.43
2022-10-10T08:16:29.583Z,86.43
2022-10-10T08:17:29.557Z,85.75
2022-10-10T08:18:29.544Z,85.38
2022-10-10T08:19:30.287Z,84.23
2022-10-10T08:20:29.545Z,83.56
2022-10-10T08:21:29.557Z,83.98
2022-10-10T08:22:29.536Z,84.27
2022-10-10T08:23:29.562Z,83.98
2022-10-10T08:24:29.551Z,83.54
2022-10-10T08:25:29.549Z,82.87
2022-10-10T08:26:29.550Z,82.40
2022-10-10T08:27:29.581Z,82.59
2022-10-10T08:28:29.573Z,81.82
2022-10-10T08:29:29.571Z,81.63
2022-10-10T08:30:29.546Z,82.01
2022-10-10T08:31:29.600Z,81.92
2022-10-10T08:32:29.546Z,82.01
2022-10-10T08:33:29.572Z,81.63
2022-10-10T08:34:29.565Z,81.82
2022-10-10T08:35:29.548Z,81.63
2022-10-10T08:36:29.555Z,81.54
2022-10-10T08:37:33.794Z,81.67
2022-10-10T08:38:29.583Z,81.67
2022-10-10T08:39:29.552Z,81.29
2022-10-10T08:40:29.548Z,80.90
2022-10-10T08:41:29.554Z,80.47
2022-10-10T08:42:29.562Z,79.99
2022-10-10T08:43:29.556Z,79.41
2022-10-10T08:44:29.605Z,79.41
2022-10-10T08:45:29.558Z,78.36
2022-10-10T08:46:29.554Z,78.64
2022-10-10T08:47:29.586Z,78.74
2022-10-10T08:48:29.568Z,79.13
2022-10-10T08:49:29.612Z,80.08
2022-10-10T08:50:29.569Z,78.97
2022-10-10T08:51:29.573Z,78.30
2022-10-10T08:52:29.565Z,77.92
2022-10-10T08:53:29.575Z,78.34
2022-10-10T08:54:29.577Z,77.48
2022-10-10T08:55:29.612Z,76.90
2022-10-10T08:56:29.581Z,76.52
2022-10-10T08:57:29.589Z,76.42
2022-10-10T08:58:29.632Z,76.52
2022-10-10T08:59:29.584Z,77.00
2022-10-10T09:00:29.602Z,76.81
2022-10-10T09:01:29.632Z,76.42
2022-10-10T09:02:43.698Z,76.65
2022-10-10T09:03:29.618Z,75.98
2022-10-10T09:04:29.613Z,75.21
2022-10-10T09:05:29.610Z,74.73
2022-10-10T09:06:29.622Z,74.54
2022-10-10T09:07:29.649Z,74.96
2022-10-10T09:08:29.634Z,74.29
2022-10-10T09:09:29.654Z,74.48
2022-10-10T09:10:30.303Z,73.81
2022-10-10T09:11:29.633Z,74.48
2022-10-10T09:12:29.638Z,74.96
2022-10-10T09:13:29.643Z,73.94
2022-10-10T09:14:29.696Z,73.72
2022-10-10T09:15:29.649Z,73.46
2022-10-10T09:16:29.653Z,73.56
2022-10-10T09:17:29.694Z,72.79
2022-10-10T09:18:29.687Z,73.11
2022-10-10T09:19:29.682Z,72.22
2022-10-10T09:20:29.686Z,72.99
2022-10-10T09:21:29.680Z,72.47
2022-10-10T09:22:29.687Z,72.75
2022-10-10T09:23:29.687Z,73.81
2022-10-10T09:24:29.714Z,74.68
2022-10-10T09:25:29.689Z,74.19
2022-10-10T09:26:29.711Z,74.48
2022-10-10T09:27:29.705Z,74.39
2022-10-10T09:28:29.759Z,74.68
2022-10-10T09:29:29.715Z,74.01
2022-10-10T09:30:29.738Z,74.35
2022-10-10T09:31:29.718Z,74.83
2022-10-10T09:32:29.739Z,75.08
2022-10-10T09:33:29.743Z,76.32
2022-10-10T09:34:29.726Z,76.14
2022-10-10T09:35:29.736Z,76.62
2022-10-10T09:36:29.748Z,76.77
2022-10-10T09:37:46.354Z,77.82
2022-10-10T09:38:29.782Z,78.11
2022-10-10T09:39:29.743Z,78.59
2022-10-10T09:40:29.773Z,78.69
2022-10-10T09:41:29.760Z,79.07
2022-10-10T09:42:29.800Z,79.55
2022-10-10T09:43:29.767Z,78.69
2022-10-10T09:44:29.764Z,78.30
2022-10-10T09:45:29.764Z,79.26
2022-10-10T09:46:29.765Z,79.74
2022-10-10T09:47:29.785Z,79.93
2022-10-10T09:48:29.802Z,79.93
2022-10-10T09:49:29.773Z,79.97
2022-10-10T09:50:29.784Z,80.12
2022-10-10T09:51:29.779Z,78.88
2022-10-10T09:52:29.778Z,79.64
2022-10-10T09:53:29.827Z,79.03
2022-10-10T09:54:29.792Z,79.60
2022-10-10T09:58:33.424Z,81.67
2022-10-10T09:59:33.424Z,81.96
2022-10-10T10:00:33.427Z,82.06
2022-10-10T10:01:33.482Z,81.67
2022-10-10T10:02:33.421Z,82.24
2022-10-10T10:03:33.432Z,82.53
2022-10-10T10:04:33.539Z,82.92
2022-10-10T10:05:33.430Z,83.01
2022-10-10T10:06:33.443Z,83.39
2022-10-10T10:07:33.441Z,83.39
2022-10-10T10:08:33.474Z,83.49
2022-10-10T10:09:33.437Z,83.39
2022-10-10T10:10:33.465Z,83.20
2022-10-10T10:11:33.476Z,82.43
2022-10-10T10:12:33.445Z,82.82
2022-10-10T10:13:33.440Z,82.92
2022-10-10T10:14:33.452Z,82.06
2022-10-10T10:15:33.440Z,81.86
2022-10-10T10:16:33.456Z,81.67
2022-10-10T10:17:33.469Z,81.67
2022-10-10T10:18:33.472Z,81.48
2022-10-10T10:19:33.457Z,81.81
2022-10-10T10:20:33.459Z,82.00
2022-10-10T10:21:33.451Z,81.13
2022-10-10T10:22:33.487Z,80.79
2022-10-10T10:23:33.454Z,80.60
2022-10-10T10:24:33.467Z,80.35
2022-10-10T10:25:33.471Z,78.92
2022-10-10T10:26:33.471Z,77.86
2022-10-10T10:27:33.471Z,78.00
2022-10-10T10:28:33.541Z,77.61
2022-10-10T10:29:33.482Z,78.28
2022-10-10T10:30:33.489Z,77.36
2022-10-10T10:31:33.485Z,76.40
2022-10-10T10:32:33.490Z,77.04
2022-10-10T10:33:33.493Z,77.80
2022-10-10T10:34:33.495Z,77.04
2022-10-10T10:35:33.506Z,77.61
2022-10-10T10:36:33.564Z,77.48
2022-10-10T10:37:33.499Z,78.15
2022-10-10T10:38:33.521Z,79.11
2022-10-10T10:39:33.500Z,78.15
2022-10-10T10:40:33.502Z,79.11
2022-10-10T10:41:33.520Z,79.01
2022-10-10T10:42:33.519Z,79.30
2022-10-10T10:43:33.506Z,78.53
2022-10-10T10:44:33.536Z,79.21
2022-10-10T10:45:33.524Z,79.97
2022-10-10T10:46:33.518Z,79.39
2022-10-10T10:47:33.546Z,79.24
2022-10-10T10:48:33.537Z,78.19
2022-10-10T10:49:33.525Z,77.56
2022-10-10T10:50:33.557Z,76.02
2022-10-10T10:51:33.527Z,76.06
2022-10-10T10:52:33.544Z,75.42
2022-10-10T10:53:33.568Z,73.69
2022-10-10T10:54:37.041Z,73.73
2022-10-10T10:55:35.847Z,73.63
2022-10-10T10:57:40.837Z,72.29
2022-10-10T10:59:10.729Z,73.25
2022-10-10T11:00:25.797Z,72.32
2022-10-10T11:01:28.665Z,71.94
2022-10-10T11:01:55.064Z,70.78
2022-10-10T11:02:54.810Z,71.08
2022-10-10T11:05:18.550Z,71.04
2022-10-10T11:05:19.394Z,71.61
2022-10-10T11:05:40.812Z,71.94
2022-10-10T11:06:33.729Z,71.75
2022-10-10T11:07:33.614Z,71.94
2022-10-10T11:08:33.600Z,72.32
2022-10-10T11:09:50.407Z,71.40
2022-10-10T11:10:33.591Z,70.72
2022-10-10T11:11:33.622Z,70.82
2022-10-10T11:12:33.600Z,71.01
2022-10-10T11:13:33.619Z,69.57
2022-10-10T11:14:33.599Z,68.84
2022-10-10T11:15:54.487Z,68.44
2022-10-10T11:16:47.915Z,68.74
2022-10-10T11:17:37.033Z,68.58
2022-10-10T11:18:33.621Z,68.00
2022-10-10T11:19:33.624Z,66.88
2022-10-10T11:20:33.629Z,66.69
2022-10-10T11:21:33.630Z,66.59
2022-10-10T11:22:34.520Z,66.33
2022-10-10T11:23:33.709Z,66.24
2022-10-10T11:24:33.744Z,67.07
2022-10-10T11:25:34.525Z,66.33
2022-10-10T11:26:33.726Z,66.27
2022-10-10T11:27:35.054Z,65.40
2022-10-10T11:28:33.713Z,64.66
2022-10-10T11:29:33.662Z,64.08
2022-10-10T11:30:33.677Z,63.40
2022-10-10T11:31:33.684Z,63.34
2022-10-10T11:32:33.686Z,64.18
2022-10-10T11:33:33.682Z,64.18
2022-10-10T11:34:33.687Z,64.72
2022-10-10T11:35:33.685Z,64.92
2022-10-10T11:36:33.716Z,65.40
2022-10-10T11:37:33.697Z,65.20
2022-10-10T11:38:33.704Z,65.30
2022-10-10T11:39:33.731Z,65.43
2022-10-10T11:40:33.738Z,63.89
2022-10-10T11:41:33.859Z,63.40
2022-10-10T11:42:33.750Z,63.34
2022-10-10T11:43:33.852Z,63.34
2022-10-10T11:44:34.770Z,63.05
2022-10-10T11:45:33.761Z,62.86
2022-10-10T11:46:33.747Z,62.57
2022-10-10T11:47:33.790Z,62.57
2022-10-10T11:48:33.751Z,62.76
2022-10-10T11:49:33.751Z,62.89
2022-10-10T11:50:34.534Z,61.63
2022-10-10T11:51:33.773Z,62.12
2022-10-10T11:52:34.942Z,62.28
2022-10-10T11:53:33.767Z,63.53
2022-10-10T11:54:42.169Z,63.24
2022-10-10T11:55:33.808Z,63.47
2022-10-10T11:56:33.777Z,62.40
2022-10-10T11:57:33.796Z,62.37
2022-10-10T11:58:34.572Z,62.37
2022-10-10T11:59:33.785Z,62.66
2022-10-10T12:00:33.804Z,62.82
2022-10-10T12:01:33.844Z,63.37
2022-10-10T12:02:33.811Z,63.82
2022-10-10T12:03:33.828Z,65.08
2022-10-10T12:04:33.865Z,66.01
2022-10-10T12:05:33.829Z,65.81
2022-10-10T12:06:34.828Z,66.69
2022-10-10T12:07:33.806Z,67.61
2022-10-10T12:08:33.809Z,68.10
2022-10-10T12:09:33.801Z,68.58
2022-10-10T12:10:33.805Z,68.58
2022-10-10T12:11:33.843Z,70.41
2022-10-10T12:12:33.807Z,69.93
2022-10-10T12:13:33.825Z,69.51
2022-10-10T12:14:33.816Z,69.99
2022-10-10T12:15:38.512Z,70.43
2022-10-10T12:16:33.829Z,71.49
2022-10-10T12:17:33.862Z,71.40
2022-10-10T12:18:33.835Z,71.49
2022-10-10T12:19:33.842Z,72.26
2022-10-10T12:20:33.866Z,72.17
2022-10-10T12:21:33.840Z,71.97
2022-10-10T12:22:33.837Z,71.97
2022-10-10T12:23:33.860Z,72.17
2022-10-10T12:24:33.849Z,71.97
2022-10-10T12:25:33.859Z,72.55
2022-10-10T12:26:33.858Z,72.45
2022-10-10T12:27:33.883Z,72.55
2022-10-10T12:28:34.028Z,72.55
2022-10-10T12:29:33.885Z,73.22
2022-10-10T12:30:33.856Z,72.55
2022-10-10T12:31:33.864Z,72.36
2022-10-10T12:32:33.876Z,72.65
2022-10-10T12:33:33.904Z,72.74
2022-10-10T12:34:33.881Z,72.36
2022-10-10T12:35:33.888Z,72.94
2022-10-10T12:36:33.884Z,72.45
2022-10-10T12:37:33.873Z,72.36
2022-10-10T12:38:33.883Z,73.22
2022-10-10T12:39:33.880Z,72.36
2022-10-10T12:40:33.883Z,72.45
2022-10-10T12:41:33.937Z,72.55
2022-10-10T12:42:33.926Z,73.22
2022-10-10T12:43:33.897Z,73.03
2022-10-10T12:44:33.901Z,73.13
2022-10-10T12:45:33.917Z,72.36
2022-10-10T12:46:33.892Z,72.55
2022-10-10T12:47:59.933Z,72.94
2022-10-10T12:48:34.172Z,72.61
2022-10-10T12:49:33.906Z,73.00
2022-10-10T12:50:33.913Z,73.61
2022-10-10T12:51:33.927Z,73.86
2022-10-10T12:52:33.922Z,73.19
2022-10-10T12:53:34.089Z,73.67
2022-10-10T12:54:33.928Z,73.67
2022-10-10T12:55:33.921Z,73.67
2022-10-10T12:56:33.934Z,73.86
2022-10-10T12:57:33.940Z,74.05
2022-10-10T12:58:33.951Z,73.38